createdAt,value
2019-05-18T00:00:40.525Z,4.20
2019-05-18T00:03:10.492Z,5.97
2019-05-18T00:05:36.600Z,5.43
2019-05-18T00:08:02.857Z,5.90
2019-05-18T00:10:31.124Z,5.90
2019-05-18T00:12:57.312Z,6.27
2019-05-18T00:15:23.378Z,5.87
2019-05-18T00:17:49.459Z,5.40
2019-05-18T00:20:15.731Z,5.47
2019-05-18T00:22:41.787Z,5.83
2019-05-18T00:25:08.157Z,5.47
2019-05-18T00:27:34.232Z,6.42
2019-05-18T00:30:00.308Z,5.92
2019-05-18T00:32:26.381Z,6.47
2019-05-18T00:34:52.447Z,6.57
2019-05-18T00:37:18.548Z,6.10
2019-05-18T00:39:44.620Z,5.45
2019-05-18T00:42:10.709Z,5.70
2019-05-18T00:44:36.784Z,6.10
2019-05-18T00:47:02.835Z,6.47
2019-05-18T00:49:28.896Z,6.53
2019-05-18T00:51:54.967Z,5.70
2019-05-18T00:54:21.041Z,5.87
2019-05-18T00:56:47.119Z,5.50
2019-05-18T00:59:16.060Z,6.37
2019-05-18T01:01:41.192Z,5.83
2019-05-18T01:04:07.359Z,6.47
2019-05-18T01:06:33.428Z,6.70
2019-05-18T01:08:59.616Z,6.62
2019-05-18T01:11:25.673Z,6.00
2019-05-18T01:13:51.740Z,5.80
2019-05-18T01:16:17.936Z,5.42
2019-05-18T01:18:43.991Z,4.97
2019-05-18T01:21:10.081Z,6.00
2019-05-18T01:23:36.140Z,6.10
2019-05-18T01:26:02.297Z,6.42
2019-05-18T01:28:28.376Z,5.03
2019-05-18T01:30:54.445Z,5.70
2019-05-18T01:33:20.505Z,6.20
2019-05-18T01:35:46.625Z,6.85
2019-05-18T01:38:12.683Z,6.00
2019-05-18T01:40:38.748Z,5.90
2019-05-18T01:43:04.919Z,5.92
2019-05-18T01:45:30.972Z,6.10
2019-05-18T01:48:12.234Z,5.20
2019-05-18T01:50:25.028Z,6.15
2019-05-18T01:52:51.098Z,6.83
2019-05-18T01:55:17.184Z,5.10
2019-05-18T01:57:43.243Z,6.42
2019-05-18T02:00:10.417Z,6.35
2019-05-18T02:02:36.491Z,7.55
2019-05-18T02:05:04.559Z,6.67
2019-05-18T02:07:30.648Z,7.20
2019-05-18T02:09:56.714Z,7.85
2019-05-18T02:12:22.778Z,6.45
2019-05-18T02:14:48.852Z,6.80
2019-05-18T02:17:14.935Z,6.62
2019-05-18T02:19:41.104Z,6.65
2019-05-18T02:22:07.155Z,6.33
2019-05-18T02:24:33.223Z,5.90
2019-05-18T02:26:59.409Z,6.20
2019-05-18T02:29:25.482Z,6.40
2019-05-18T02:31:51.552Z,6.22
2019-05-18T02:34:17.614Z,6.05
2019-05-18T02:36:43.680Z,6.60
2019-05-18T02:39:10.088Z,5.92
2019-05-18T02:41:36.253Z,6.00
2019-05-18T02:44:03.116Z,6.70
2019-05-18T02:46:29.178Z,6.37
2019-05-18T02:48:55.246Z,5.85
2019-05-18T02:51:21.312Z,6.97
2019-05-18T02:53:47.393Z,6.53
2019-05-18T02:56:13.448Z,6.65
2019-05-18T02:58:39.513Z,6.85
2019-05-18T03:01:05.688Z,7.78
2019-05-18T03:03:31.748Z,6.60
2019-05-18T03:05:57.814Z,6.75
2019-05-18T03:08:23.882Z,6.45
2019-05-18T03:10:49.970Z,7.65
2019-05-18T03:13:16.036Z,6.78
2019-05-18T03:15:42.098Z,5.92
2019-05-18T03:18:08.190Z,6.00
2019-05-18T03:20:34.246Z,5.92
2019-05-18T03:23:00.497Z,7.62
2019-05-18T03:25:26.577Z,6.70
2019-05-18T03:27:53.336Z,6.83
2019-05-18T03:30:19.402Z,7.05
2019-05-18T03:32:45.471Z,6.65
2019-05-18T03:35:11.629Z,6.65
2019-05-18T03:37:37.809Z,7.10
2019-05-18T03:40:04.368Z,7.28
2019-05-18T03:42:30.428Z,6.92
2019-05-18T03:44:56.497Z,7.40
2019-05-18T03:47:22.567Z,6.47
2019-05-18T03:49:48.721Z,6.97
2019-05-18T03:52:14.782Z,6.97
2019-05-18T03:54:40.845Z,6.60
2019-05-18T03:57:06.905Z,6.80
2019-05-18T03:59:32.960Z,6.22
2019-05-18T04:01:59.147Z,7.15
2019-05-18T04:04:25.218Z,6.45
2019-05-18T04:06:51.279Z,7.47
2019-05-18T04:09:17.353Z,6.35
2019-05-18T04:11:43.412Z,6.72
2019-05-18T04:14:09.504Z,7.00
2019-05-18T04:16:35.590Z,8.25
2019-05-18T04:19:01.645Z,7.03
2019-05-18T04:21:27.711Z,7.50
2019-05-18T04:23:53.774Z,6.62
2019-05-18T04:26:19.824Z,7.20
2019-05-18T04:28:45.904Z,7.00
2019-05-18T04:31:11.987Z,7.58
2019-05-18T04:33:38.128Z,7.65
2019-05-18T04:36:04.211Z,7.17
2019-05-18T04:38:30.280Z,7.15
2019-05-18T04:40:56.343Z,7.60
2019-05-18T04:43:22.417Z,6.83
2019-05-18T04:45:48.582Z,7.65
2019-05-18T04:48:14.650Z,8.18
2019-05-18T04:50:40.725Z,8.05
2019-05-18T04:53:06.775Z,7.40
2019-05-18T04:55:34.218Z,8.00
2019-05-18T04:58:00.389Z,6.75
2019-05-18T05:00:26.476Z,7.87
2019-05-18T05:02:52.730Z,7.70
2019-05-18T05:05:18.889Z,7.37
2019-05-18T05:07:45.059Z,7.70
2019-05-18T05:10:11.371Z,7.05
2019-05-18T05:12:37.435Z,8.03
2019-05-18T05:15:03.826Z,7.70
2019-05-18T05:17:29.891Z,7.80
2019-05-18T05:19:55.955Z,7.00
2019-05-18T05:22:22.121Z,8.28
2019-05-18T05:24:48.179Z,6.90
2019-05-18T05:27:14.274Z,7.37
2019-05-18T05:29:40.336Z,6.50
2019-05-18T05:32:06.412Z,7.13
2019-05-18T05:34:32.489Z,7.85
2019-05-18T05:36:59.867Z,7.43
2019-05-18T05:39:25.938Z,9.07
2019-05-18T05:41:51.998Z,7.80
2019-05-18T05:44:18.067Z,8.13
2019-05-18T05:46:44.128Z,6.80
2019-05-18T05:49:10.193Z,8.70
2019-05-18T05:51:36.259Z,7.83
2019-05-18T05:54:02.525Z,7.90
2019-05-18T05:56:28.686Z,8.67
2019-05-18T05:58:54.811Z,7.20
2019-05-18T06:01:21.383Z,6.40
2019-05-18T06:03:47.468Z,6.47
2019-05-18T06:06:16.840Z,5.63
2019-05-18T06:08:43.594Z,5.97
2019-05-18T06:11:09.840Z,7.03
2019-05-18T06:13:35.924Z,6.80
2019-05-18T06:16:02.090Z,5.90
2019-05-18T06:18:28.252Z,6.47
2019-05-18T06:20:54.338Z,4.83
2019-05-18T06:23:20.385Z,5.50
2019-05-18T06:25:46.480Z,4.70
2019-05-18T06:28:12.542Z,5.00
2019-05-18T06:30:38.608Z,4.50
2019-05-18T06:33:04.673Z,6.13
2019-05-18T06:35:30.740Z,5.13
2019-05-18T06:37:57.215Z,5.67
2019-05-18T06:40:23.281Z,6.10
2019-05-18T06:42:49.347Z,6.23
2019-05-18T06:45:15.609Z,5.17
2019-05-18T06:47:41.685Z,4.70
2019-05-18T06:50:12.079Z,5.40
2019-05-18T06:52:36.616Z,6.07
2019-05-18T06:55:04.767Z,5.23
2019-05-18T06:57:31.936Z,5.23
2019-05-18T06:59:58.012Z,5.30
2019-05-18T07:02:24.053Z,5.50
2019-05-18T07:04:50.129Z,5.07
2019-05-18T07:07:16.201Z,4.77
2019-05-18T07:09:42.357Z,5.97
2019-05-18T07:12:08.445Z,5.57
2019-05-18T07:14:34.588Z,5.80
2019-05-18T07:17:00.635Z,6.07
2019-05-18T07:19:26.717Z,6.50
2019-05-18T07:21:52.779Z,6.23
2019-05-18T07:24:18.952Z,6.33
2019-05-18T07:26:45.013Z,6.00
2019-05-18T07:29:11.065Z,6.00
2019-05-18T07:31:37.140Z,5.40
2019-05-18T07:34:03.196Z,5.17
2019-05-18T07:36:29.261Z,5.60
2019-05-18T07:38:55.329Z,5.20
2019-05-18T07:41:21.399Z,5.73
2019-05-18T07:43:47.475Z,6.10
2019-05-18T07:46:13.524Z,5.07
2019-05-18T07:48:39.625Z,5.10
2019-05-18T07:51:05.709Z,4.97
2019-05-18T07:53:31.755Z,6.23
2019-05-18T07:55:57.815Z,5.47
2019-05-18T07:58:23.898Z,5.17
2019-05-18T08:00:49.949Z,5.20
2019-05-18T08:03:16.020Z,4.83
2019-05-18T08:05:42.089Z,4.87
2019-05-18T08:08:08.145Z,4.20
2019-05-18T08:10:36.121Z,4.20
2019-05-18T08:13:03.336Z,4.40
2019-05-18T08:15:29.452Z,4.33
2019-05-18T08:17:55.513Z,4.70
2019-05-18T08:20:21.574Z,4.07
2019-05-18T08:22:47.749Z,5.00
2019-05-18T08:25:13.904Z,5.33
2019-05-18T08:27:39.964Z,4.60
2019-05-18T08:30:06.620Z,3.67
2019-05-18T08:32:32.693Z,5.03
2019-05-18T08:34:58.740Z,4.90
2019-05-18T08:37:24.815Z,4.50
2019-05-18T08:39:50.876Z,4.83
2019-05-18T08:42:17.037Z,4.60
2019-05-18T08:44:43.093Z,4.43
2019-05-18T08:47:09.244Z,3.60
2019-05-18T08:49:35.307Z,5.13
2019-05-18T08:52:08.225Z,4.10
2019-05-18T08:54:29.415Z,4.60
2019-05-18T08:56:55.485Z,5.03
2019-05-18T08:59:21.555Z,3.80
2019-05-18T09:01:47.615Z,4.50
2019-05-18T09:04:13.786Z,4.87
2019-05-18T09:06:39.935Z,4.90
2019-05-18T09:09:06.104Z,4.77
2019-05-18T09:11:32.159Z,3.50
2019-05-18T09:13:58.217Z,3.90
2019-05-18T09:16:24.298Z,3.83
2019-05-18T09:18:50.452Z,3.47
2019-05-18T09:21:16.517Z,3.93
2019-05-18T09:23:42.590Z,3.77
2019-05-18T09:26:08.638Z,3.70
2019-05-18T09:28:34.709Z,4.27
2019-05-18T09:31:00.768Z,3.30
2019-05-18T09:33:26.815Z,3.00
2019-05-18T09:35:52.877Z,2.90
2019-05-18T09:38:18.941Z,4.20
2019-05-18T09:40:44.998Z,2.73
2019-05-18T09:43:11.068Z,4.03
2019-05-18T09:45:37.132Z,3.37
2019-05-18T09:48:03.761Z,3.50
2019-05-18T09:50:29.945Z,3.50
2019-05-18T09:52:56.008Z,3.63
2019-05-18T09:55:22.811Z,3.50
2019-05-18T09:57:48.878Z,3.57
2019-05-18T10:00:15.827Z,3.40
2019-05-18T10:02:41.896Z,3.03
2019-05-18T10:05:08.361Z,3.53
2019-05-18T10:07:34.543Z,3.20
2019-05-18T10:10:00.712Z,4.70
2019-05-18T10:12:26.881Z,4.20
2019-05-18T10:14:53.039Z,3.20
2019-05-18T10:17:19.125Z,3.73
2019-05-18T10:19:45.181Z,3.50
2019-05-18T10:22:11.241Z,3.77
2019-05-18T10:24:37.297Z,4.37
2019-05-18T10:27:03.355Z,3.77
2019-05-18T10:29:29.430Z,3.60
2019-05-18T10:31:55.504Z,3.13
2019-05-18T10:34:21.561Z,4.90
2019-05-18T10:36:47.641Z,2.97
2019-05-18T10:39:13.693Z,3.17
2019-05-18T10:41:39.750Z,2.87
2019-05-18T10:44:05.829Z,3.20
2019-05-18T10:46:31.873Z,2.80
2019-05-18T10:48:58.018Z,2.43
2019-05-18T10:51:24.078Z,3.20
2019-05-18T10:53:50.138Z,2.57
2019-05-18T10:56:16.201Z,2.90
2019-05-18T10:58:42.252Z,3.90
2019-05-18T11:01:08.415Z,2.80
2019-05-18T11:03:34.576Z,2.97
2019-05-18T11:06:00.737Z,2.77
2019-05-18T11:08:26.805Z,2.77
2019-05-18T11:10:52.861Z,2.90
2019-05-18T11:13:18.934Z,2.73
2019-05-18T11:15:45.091Z,2.57
2019-05-18T11:18:11.158Z,2.83
2019-05-18T11:20:37.233Z,2.70
2019-05-18T11:23:03.293Z,2.63
2019-05-18T11:25:29.352Z,2.90
2019-05-18T11:27:55.415Z,2.30
2019-05-18T11:30:22.192Z,2.70
2019-05-18T11:32:48.258Z,2.53
2019-05-18T11:35:15.216Z,2.57
2019-05-18T11:37:41.281Z,2.63
2019-05-18T11:40:08.219Z,2.40
2019-05-18T11:42:34.381Z,2.80
2019-05-18T11:45:00.433Z,2.30
2019-05-18T11:47:26.498Z,2.60
2019-05-18T11:49:52.799Z,2.20
2019-05-18T11:52:19.088Z,2.13
2019-05-18T11:54:45.157Z,2.33
2019-05-18T11:57:11.249Z,2.33
2019-05-18T11:59:37.675Z,2.23
2019-05-18T12:02:03.798Z,2.20
2019-05-18T12:04:29.937Z,2.40
2019-05-18T12:06:56.080Z,2.20
2019-05-18T12:09:22.251Z,2.80
2019-05-18T12:11:48.291Z,2.87
2019-05-18T12:14:14.373Z,2.30
2019-05-18T12:16:40.440Z,2.47
2019-05-18T12:19:06.590Z,2.37
2019-05-18T12:21:32.669Z,2.07
2019-05-18T12:24:12.619Z,2.20
2019-05-18T12:26:26.689Z,2.30
2019-05-18T12:28:52.766Z,2.07
2019-05-18T12:31:18.832Z,2.20
2019-05-18T12:33:44.902Z,2.00
2019-05-18T12:36:11.064Z,1.90
2019-05-18T12:38:37.111Z,2.00
2019-05-18T12:41:03.333Z,1.90
2019-05-18T12:43:29.451Z,2.10
2019-05-18T12:45:55.537Z,2.10
2019-05-18T12:48:21.597Z,2.33
2019-05-18T12:50:47.647Z,2.10
2019-05-18T12:53:13.720Z,2.20
2019-05-18T12:55:39.771Z,1.77
2019-05-18T12:58:06.000Z,2.17
2019-05-18T13:00:32.074Z,1.73
2019-05-18T13:02:58.323Z,1.73
2019-05-18T13:05:24.396Z,1.80
2019-05-18T13:07:50.568Z,1.77
2019-05-18T13:10:18.907Z,1.97
2019-05-18T13:12:44.970Z,1.97
2019-05-18T13:15:30.904Z,1.80
2019-05-18T13:17:56.963Z,2.07
2019-05-18T13:20:23.437Z,1.97
2019-05-18T13:22:49.494Z,2.00
2019-05-18T13:25:15.858Z,1.80
2019-05-18T13:27:41.926Z,1.90
2019-05-18T13:30:11.100Z,1.83
2019-05-18T13:32:37.260Z,1.80
2019-05-18T13:35:05.408Z,2.40
2019-05-18T13:37:31.476Z,1.50
2019-05-18T13:39:57.542Z,1.83
2019-05-18T13:42:23.593Z,1.40
2019-05-18T13:44:49.667Z,1.73
2019-05-18T13:47:15.737Z,1.30
2019-05-18T13:49:41.783Z,1.53
2019-05-18T13:52:07.852Z,1.50
2019-05-18T13:54:33.927Z,1.43
2019-05-18T13:57:00.092Z,1.97
2019-05-18T13:59:26.518Z,1.73
2019-05-18T14:01:55.030Z,3.33
2019-05-18T14:04:21.391Z,1.50
2019-05-18T14:06:47.819Z,1.90
2019-05-18T14:09:14.253Z,1.53
2019-05-18T14:11:40.694Z,1.73
2019-05-18T14:14:07.132Z,2.00
2019-05-18T14:16:33.613Z,1.80
2019-05-18T14:19:00.211Z,1.50
2019-05-18T14:21:26.689Z,1.77
2019-05-18T14:23:53.179Z,1.53
2019-05-18T14:26:19.668Z,1.40
2019-05-18T14:28:46.212Z,1.30
2019-05-18T14:31:12.693Z,1.20
2019-05-18T14:33:39.181Z,1.37
2019-05-18T14:36:05.666Z,1.07
2019-05-18T14:38:32.263Z,1.30
2019-05-18T14:40:58.838Z,1.17
2019-05-18T14:43:25.316Z,1.43
2019-05-18T14:45:51.856Z,1.43
2019-05-18T14:48:18.328Z,1.17
2019-05-18T14:50:44.812Z,1.17
2019-05-18T14:53:11.316Z,1.20
2019-05-18T14:55:38.396Z,1.00
2019-05-18T14:58:04.484Z,1.00
2019-05-18T15:00:30.620Z,0.90
2019-05-18T15:02:56.764Z,1.13
2019-05-18T15:05:25.324Z,0.93
2019-05-18T15:07:51.726Z,1.10
2019-05-18T15:10:18.839Z,1.17
2019-05-18T15:12:44.897Z,1.27
2019-05-18T15:15:12.440Z,1.20
2019-05-18T15:17:40.658Z,1.00
2019-05-18T15:20:07.802Z,1.10
2019-05-18T15:22:36.241Z,1.03
2019-05-18T15:25:02.984Z,1.20
2019-05-18T15:27:29.732Z,1.30
2019-05-18T15:29:55.861Z,1.47
2019-05-18T15:32:21.925Z,1.40
2019-05-18T15:34:47.985Z,1.20
2019-05-18T15:37:14.045Z,1.20
2019-05-18T15:39:40.615Z,1.20
2019-05-18T15:42:06.704Z,1.57
2019-05-18T15:44:32.778Z,1.50
2019-05-18T15:46:58.839Z,1.30
2019-05-18T15:49:24.964Z,3.03
2019-05-18T15:51:51.117Z,2.30
2019-05-18T15:54:17.219Z,3.50
2019-05-18T15:56:44.324Z,2.27
2019-05-18T15:59:10.612Z,1.60
2019-05-18T16:01:36.745Z,2.00
2019-05-18T16:04:02.900Z,1.77
2019-05-18T16:06:28.989Z,2.80
2019-05-18T16:08:55.040Z,2.13
2019-05-18T16:11:21.117Z,1.73
2019-05-18T16:13:47.163Z,1.90
2019-05-18T16:16:13.278Z,1.90
2019-05-18T16:18:39.373Z,2.00
2019-05-18T16:21:05.424Z,2.00
2019-05-18T16:23:31.516Z,2.10
2019-05-18T16:25:57.565Z,2.23
2019-05-18T16:28:23.615Z,2.17
2019-05-18T16:30:49.749Z,1.70
2019-05-18T16:33:15.798Z,2.07
2019-05-18T16:35:41.973Z,2.23
2019-05-18T16:38:08.049Z,2.00
2019-05-18T16:40:34.102Z,1.93
2019-05-18T16:43:00.177Z,2.40
2019-05-18T16:45:26.234Z,2.23
2019-05-18T16:47:52.295Z,2.77
2019-05-18T16:50:18.756Z,2.20
2019-05-18T16:52:44.819Z,2.30
2019-05-18T16:55:11.386Z,2.50
2019-05-18T16:57:37.442Z,2.50
2019-05-18T17:00:09.113Z,2.30
2019-05-18T17:02:35.184Z,2.27
2019-05-18T17:05:01.414Z,1.80
2019-05-18T17:07:27.469Z,1.70
2019-05-18T17:09:53.574Z,1.93
2019-05-18T17:12:19.639Z,2.10
2019-05-18T17:14:45.800Z,1.87
2019-05-18T17:17:11.877Z,3.20
2019-05-18T17:19:37.960Z,2.30
2019-05-18T17:22:04.024Z,3.23
2019-05-18T17:24:30.085Z,2.00
2019-05-18T17:26:56.151Z,2.00
2019-05-18T17:29:22.251Z,2.30
2019-05-18T17:31:48.409Z,2.43
2019-05-18T17:34:14.617Z,2.50
2019-05-18T17:36:40.761Z,2.40
2019-05-18T17:39:06.913Z,2.20
2019-05-18T17:41:32.981Z,2.10
2019-05-18T17:43:59.045Z,2.33
2019-05-18T17:46:25.099Z,2.47
2019-05-18T17:48:51.617Z,2.73
2019-05-18T17:51:18.199Z,3.20
2019-05-18T17:53:44.677Z,3.27
2019-05-18T17:56:11.168Z,3.70
2019-05-18T17:58:37.782Z,3.13
2019-05-18T18:01:04.357Z,3.40
2019-05-18T18:03:30.920Z,3.30
2019-05-18T18:05:57.513Z,3.13
2019-05-18T18:08:24.017Z,2.50
2019-05-18T18:10:50.572Z,2.70
2019-05-18T18:13:17.105Z,2.53
2019-05-18T18:15:43.673Z,3.10
2019-05-18T18:18:10.112Z,4.10
2019-05-18T18:20:36.181Z,4.50
2019-05-18T18:23:02.634Z,3.60
2019-05-18T18:25:29.156Z,3.10
2019-05-18T18:27:55.228Z,3.30
2019-05-18T18:30:21.494Z,3.50
2019-05-18T18:32:47.586Z,3.27
2019-05-18T18:35:13.857Z,4.30
2019-05-18T18:37:39.933Z,3.67
2019-05-18T18:40:06.709Z,4.63
2019-05-18T18:42:32.874Z,5.40
2019-05-18T18:44:58.915Z,5.90
2019-05-18T18:47:24.995Z,6.00
2019-05-18T18:49:51.041Z,5.53
2019-05-18T18:52:17.105Z,5.80
2019-05-18T18:54:43.185Z,4.97
2019-05-18T18:57:09.242Z,5.60
2019-05-18T18:59:35.305Z,4.80
2019-05-18T19:02:01.409Z,4.30
2019-05-18T19:04:27.524Z,3.40
2019-05-18T19:06:53.605Z,3.30
2019-05-18T19:09:19.655Z,3.90
2019-05-18T19:11:45.810Z,2.70
2019-05-18T19:14:11.892Z,2.97
2019-05-18T19:16:37.944Z,2.60
2019-05-18T19:19:04.130Z,3.30
2019-05-18T19:21:30.180Z,3.40
2019-05-18T19:23:56.244Z,3.37
2019-05-18T19:26:22.351Z,3.73
2019-05-18T19:28:48.403Z,4.70
2019-05-18T19:31:14.461Z,4.37
2019-05-18T19:33:40.534Z,4.27
2019-05-18T19:36:06.603Z,4.40
2019-05-18T19:38:32.665Z,3.67
2019-05-18T19:40:58.724Z,4.23
2019-05-18T19:43:24.834Z,3.47
2019-05-18T19:45:50.957Z,3.00
2019-05-18T19:48:17.001Z,3.70
2019-05-18T19:50:43.078Z,3.17
2019-05-18T19:53:09.137Z,3.10
2019-05-18T19:55:35.202Z,3.80
2019-05-18T19:58:08.369Z,4.00
2019-05-18T20:00:29.224Z,3.90
2019-05-18T20:02:55.299Z,4.13
2019-05-18T20:05:21.469Z,4.53
2019-05-18T20:07:47.532Z,5.07
2019-05-18T20:10:13.894Z,4.47
2019-05-18T20:12:39.980Z,5.00
2019-05-18T20:15:09.364Z,4.37
2019-05-18T20:17:34.805Z,4.33
2019-05-18T20:20:00.988Z,4.63
2019-05-18T20:22:27.046Z,4.37
2019-05-18T20:24:53.205Z,4.23
2019-05-18T20:27:19.277Z,4.10
2019-05-18T20:29:45.357Z,4.57
2019-05-18T20:32:11.454Z,4.50
2019-05-18T20:34:37.508Z,4.50
2019-05-18T20:37:03.585Z,3.97
2019-05-18T20:39:29.638Z,4.50
2019-05-18T20:41:55.712Z,4.43
2019-05-18T20:44:21.778Z,5.03
2019-05-18T20:46:47.831Z,4.53
2019-05-18T20:49:13.913Z,4.40
2019-05-18T20:51:39.974Z,4.17
2019-05-18T20:54:06.036Z,5.10
2019-05-18T20:56:32.114Z,5.20
2019-05-18T20:58:58.169Z,4.67
2019-05-18T21:01:24.297Z,6.07
2019-05-18T21:03:50.424Z,5.23
2019-05-18T21:06:16.480Z,6.50
2019-05-18T21:08:42.567Z,6.03
2019-05-18T21:11:08.629Z,6.40
2019-05-18T21:13:34.683Z,10.27
2019-05-18T21:16:00.776Z,7.67
2019-05-18T21:18:26.847Z,7.73
2019-05-18T21:20:52.923Z,7.87
2019-05-18T21:23:19.003Z,7.23
2019-05-18T21:25:45.277Z,8.47
2019-05-18T21:28:11.385Z,8.90
2019-05-18T21:30:37.528Z,8.13
2019-05-18T21:33:03.599Z,10.30
2019-05-18T21:35:29.672Z,8.83
2019-05-18T21:37:55.948Z,9.87
2019-05-18T21:40:22.023Z,10.63
2019-05-18T21:42:48.084Z,10.37
2019-05-18T21:45:14.541Z,10.90
2019-05-18T21:47:40.697Z,11.10
2019-05-18T21:50:07.564Z,10.57
2019-05-18T21:52:33.632Z,10.70
2019-05-18T21:54:59.704Z,10.80
2019-05-18T21:57:25.788Z,11.30
2019-05-18T21:59:51.851Z,10.50
2019-05-18T22:02:17.915Z,10.73
2019-05-18T22:04:43.993Z,11.73
2019-05-18T22:07:10.041Z,11.63
2019-05-18T22:09:36.225Z,10.67
2019-05-18T22:12:02.573Z,10.90
2019-05-18T22:14:28.679Z,11.57
2019-05-18T22:16:54.825Z,11.83
2019-05-18T22:19:20.988Z,12.30
2019-05-18T22:21:47.039Z,12.17
2019-05-18T22:24:13.108Z,11.93
2019-05-18T22:26:39.262Z,11.20
2019-05-18T22:29:05.325Z,13.10
2019-05-18T22:31:31.419Z,11.90
2019-05-18T22:33:57.555Z,12.07
2019-05-18T22:36:23.616Z,11.47
2019-05-18T22:38:49.709Z,11.40
2019-05-18T22:41:15.861Z,11.67
2019-05-18T22:43:41.933Z,12.00
2019-05-18T22:46:08.000Z,13.07
2019-05-18T22:48:41.421Z,12.00
2019-05-18T22:51:02.439Z,11.83
2019-05-18T22:53:28.492Z,11.70
2019-05-18T22:55:54.557Z,12.63
2019-05-18T22:58:20.624Z,12.07
2019-05-18T23:00:46.680Z,11.53
2019-05-18T23:03:12.773Z,13.50
2019-05-18T23:05:38.819Z,11.60
2019-05-18T23:08:04.883Z,13.60
2019-05-18T23:10:30.961Z,13.73
2019-05-18T23:12:57.112Z,12.67
2019-05-18T23:15:23.184Z,12.07
2019-05-18T23:17:49.267Z,12.60
2019-05-18T23:20:15.520Z,12.70
2019-05-18T23:22:41.598Z,11.80
2019-05-18T23:25:07.956Z,12.10
2019-05-18T23:27:34.027Z,15.80
2019-05-18T23:30:00.088Z,13.03
2019-05-18T23:32:26.157Z,13.53
2019-05-18T23:34:52.221Z,12.03
2019-05-18T23:37:18.283Z,11.83
2019-05-18T23:39:44.347Z,12.83
2019-05-18T23:42:10.420Z,12.77
2019-05-18T23:44:36.529Z,12.53
2019-05-18T23:47:02.648Z,12.50
2019-05-18T23:49:28.717Z,12.30
2019-05-18T23:51:54.968Z,11.83
2019-05-18T23:54:21.038Z,12.50
2019-05-18T23:56:47.100Z,13.10
2019-05-18T23:59:13.168Z,12.87
